| time (UTC) | temp C | wind direction | speed KPH | gust KPH | rain 1hr cm | rain 24hr cm | rain mn cm | humidity % | barometer mb |
| 20260506081045 | 9 | 0 | 0.0 | 4.8 | 0.00 | 1.32 | 0.74 | 97 | 1006.5 |
| 20260506080542 | 9 | 0 | 0.0 | 4.8 | 0.00 | 1.32 | 0.74 | 97 | 1006.5 |
| 20260506073058 | 9 | 0 | 0.0 | 3.2 | 0.00 | 1.32 | 0.74 | 97 | 1006.4 |
| 20260506072542 | 9 | 0 | 0.0 | 6.4 | 0.00 | 1.32 | 0.74 | 97 | 1006.3 |
| 20260506072045 | 9 | 0 | 0.0 | 6.4 | 0.03 | 1.32 | 0.74 | 97 | 1006.4 |
| 20260506071554 | 9 | 0 | 0.0 | 6.4 | 0.00 | 1.30 | 0.74 | 97 | 1006.3 |
| 20260506071041 | 9 | 0 | 0.0 | 3.2 | 0.00 | 1.30 | 0.74 | 97 | 1006.3 |
| 20260506070547 | 9 | 0 | 0.0 | 0.0 | 0.00 | 1.30 | 0.74 | 97 | 1006.4 |
| 20260506062042 | 8 | 0 | 0.0 | 0.0 | 0.00 | 1.30 | 0.71 | 97 | 1006.1 |
| 20260506061558 | 8 | 0 | 0.0 | 0.0 | 0.00 | 1.30 | 0.71 | 97 | 1006.1 |
| 20260506061042 | 8 | 0 | 0.0 | 0.0 | 0.00 | 1.30 | 0.71 | 97 | 1006.1 |
| 20260506060543 | 8 | 0 | 0.0 | 0.0 | 0.03 | 1.30 | 0.71 | 97 | 1005.9 |
| 20260506051047 | 8 | 0 | 0.0 | 3.2 | 0.03 | 1.30 | 0.69 | 97 | 1006.1 |
| 20260506050542 | 8 | 0 | 0.0 | 3.2 | 0.00 | 1.27 | 0.66 | 97 | 1006.0 |
| 20260506050108 | 8 | 0 | 0.0 | 0.0 | 0.00 | 1.27 | 0.66 | 97 | 1006.1 |
| 20260506045043 | 8 | 0 | 0.0 | 0.0 | 0.00 | 1.27 | 0.66 | 97 | 1006.1 |
| 20260506044554 | 8 | 0 | 0.0 | 1.6 | 0.00 | 1.27 | 0.66 | 97 | 1006.2 |
| 20260506044041 | 8 | 0 | 0.0 | 1.6 | 0.00 | 1.27 | 0.66 | 97 | 1006.1 |
| 20260506043544 | 8 | 0 | 0.0 | 4.8 | 0.00 | 1.27 | 0.66 | 97 | 1006.0 |
| 20260506043100 | 8 | 0 | 0.0 | 4.8 | 0.03 | 1.27 | 0.66 | 97 | 1006.1 |
| 20260506042543 | 8 | 0 | 0.0 | 4.8 | 0.00 | 1.24 | 0.64 | 97 | 1006.0 |
| 20260506042045 | 8 | 0 | 0.0 | 0.0 | 0.00 | 1.24 | 0.64 | 97 | 1006.0 |
| 20260506041558 | 8 | 0 | 0.0 | 9.7 | 0.03 | 1.24 | 0.64 | 97 | 1006.0 |
| 20260506041044 | 8 | 0 | 0.0 | 9.7 | 0.03 | 1.24 | 0.64 | 96 | 1005.9 |
| 20260506040545 | 8 | 0 | 0.0 | 9.7 | 0.03 | 1.24 | 0.64 | 96 | 1005.9 |
| 20260506040105 | 9 | 0 | 0.0 | 9.7 | 0.03 | 1.24 | 0.64 | 96 | 1006.0 |
| 20260506035544 | 9 | 0 | 0.0 | 9.7 | 0.05 | 1.24 | 0.64 | 97 | 1006.0 |
| 20260506035045 | 9 | 0 | 0.0 | 3.2 | 0.05 | 1.24 | 0.64 | 97 | 1006.0 |
| 20260506034556 | 9 | 0 | 0.0 | 3.2 | 0.05 | 1.24 | 0.64 | 97 | 1006.0 |
| 20260506034044 | 9 | 0 | 0.0 | 0.0 | 0.05 | 1.24 | 0.64 | 96 | 1006.0 |
| 20260506033542 | 9 | 0 | 0.0 | 4.8 | 0.05 | 1.24 | 0.64 | 96 | 1005.9 |
| 20260506033052 | 9 | 0 | 0.0 | 4.8 | 0.03 | 1.22 | 0.64 | 97 | 1006.0 |
| 20260506032545 | 9 | 0 | 0.0 | 8.0 | 0.05 | 1.22 | 0.64 | 97 | 1006.0 |
| 20260506032042 | 9 | 0 | 0.0 | 9.7 | 0.05 | 1.22 | 0.64 | 97 | 1006.0 |
| 20260506031554 | 9 | 0 | 0.0 | 9.7 | 0.03 | 1.22 | 0.61 | 97 | 1006.0 |
| 20260506031045 | 9 | 355 | 0.0 | 8.0 | 0.03 | 1.22 | 0.61 | 96 | 1006.0 |
| 20260506030545 | 9 | 0 | 0.0 | 8.0 | 0.03 | 1.22 | 0.61 | 96 | 1006.1 |
| 20260506030057 | 10 | 0 | 0.0 | 8.0 | 0.05 | 1.22 | 0.61 | 96 | 1006.2 |
| 20260506025544 | 10 | 0 | 0.0 | 4.8 | 0.03 | 1.19 | 0.58 | 96 | 1006.1 |
| 20260506025044 | 10 | 0 | 0.0 | 8.0 | 0.03 | 1.19 | 0.58 | 96 | 1006.2 |
| 20260506024557 | 10 | 0 | 0.0 | 8.0 | 0.03 | 1.19 | 0.58 | 96 | 1006.2 |
| 20260506024045 | 10 | 0 | 0.0 | 12.9 | 0.03 | 1.19 | 0.58 | 96 | 1006.3 |
| 20260506023546 | 10 | 0 | 1.6 | 12.9 | 0.05 | 1.19 | 0.58 | 96 | 1006.2 |
| 20260506023051 | 10 | 0 | 0.0 | 6.4 | 0.05 | 1.19 | 0.58 | 96 | 1006.2 |
| 20260506022544 | 10 | 0 | 0.0 | 9.7 | 0.03 | 1.17 | 0.56 | 96 | 1006.2 |
| 20260506022044 | 10 | 0 | 0.0 | 9.7 | 0.05 | 1.17 | 0.56 | 96 | 1006.3 |
| 20260506021602 | 10 | 355 | 0.0 | 9.7 | 0.05 | 1.17 | 0.56 | 96 | 1006.3 |
| 20260506021042 | 10 | 344 | 0.0 | 8.0 | 0.08 | 1.17 | 0.56 | 97 | 1006.4 |
| 20260506020545 | 10 | 0 | 0.0 | 8.0 | 0.08 | 1.17 | 0.56 | 97 | 1006.3 |
| 20260506020051 | 10 | 0 | 0.0 | 16.1 | 0.08 | 1.14 | 0.56 | 97 | 1006.4 |
| 20260506015547 | 10 | 0 | 0.0 | 16.1 | 0.08 | 1.14 | 0.56 | 96 | 1006.4 |
| 20260506015047 | 10 | 342 | 0.0 | 16.1 | 0.08 | 1.14 | 0.56 | 96 | 1006.4 |
| 20260506014555 | 10 | 0 | 0.0 | 6.4 | 0.10 | 1.14 | 0.56 | 96 | 1006.4 |
| 20260506014046 | 10 | 0 | 0.0 | 6.4 | 0.13 | 1.14 | 0.56 | 96 | 1006.5 |
| 20260506013541 | 10 | 0 | 0.0 | 6.4 | 0.10 | 1.12 | 0.53 | 96 | 1006.6 |
| 20260506013104 | 10 | 0 | 0.0 | 16.1 | 0.13 | 1.12 | 0.53 | 96 | 1006.6 |
| 20260506012545 | 10 | 0 | 0.0 | 16.1 | 0.10 | 1.12 | 0.51 | 96 | 1006.5 |
| 20260506012049 | 10 | 0 | 1.6 | 16.1 | 0.13 | 1.12 | 0.51 | 96 | 1006.6 |
| 20260506011605 | 10 | 0 | 0.0 | 12.9 | 0.13 | 1.12 | 0.51 | 96 | 1006.6 |
| 20260506011044 | 10 | 0 | 0.0 | 8.0 | 0.13 | 1.09 | 0.48 | 96 | 1006.6 |
| 20260506010544 | 10 | 0 | 0.0 | 8.0 | 0.15 | 1.09 | 0.48 | 96 | 1006.6 |
| 20260506010053 | 10 | 0 | 0.0 | 4.8 | 0.15 | 1.07 | 0.46 | 96 | 1006.6 |
| 20260506005541 | 10 | 0 | 0.0 | 8.0 | 0.13 | 1.04 | 0.46 | 96 | 1006.7 |
| 20260506005043 | 10 | 328 | 0.0 | 8.0 | 0.15 | 1.04 | 0.46 | 96 | 1006.7 |
| 20260506004550 | 10 | 0 | 0.0 | 4.8 | 0.13 | 1.02 | 0.43 | 96 | 1006.8 |
| 20260506004042 | 10 | 0 | 0.0 | 4.8 | 0.13 | 1.02 | 0.41 | 96 | 1006.8 |
| 20260506003545 | 10 | 0 | 0.0 | 3.2 | 0.15 | 1.02 | 0.41 | 96 | 1006.9 |
| 20260506003052 | 10 | 0 | 0.0 | 6.4 | 0.13 | 0.99 | 0.38 | 96 | 1006.8 |
| 20260506002541 | 10 | 0 | 0.0 | 6.4 | 0.15 | 0.99 | 0.38 | 96 | 1006.9 |
| 20260506002042 | 10 | 0 | 0.0 | 6.4 | 0.13 | 0.97 | 0.36 | 96 | 1006.9 |
| 20260506001554 | 10 | 0 | 0.0 | 8.0 | 0.13 | 0.94 | 0.36 | 96 | 1007.0 |
| 20260506001044 | 10 | 0 | 0.0 | 8.0 | 0.15 | 0.94 | 0.36 | 96 | 1007.0 |
| 20260506000542 | 10 | 0 | 0.0 | 9.7 | 0.13 | 0.94 | 0.33 | 96 | 1007.0 |
| 20260506000050 | 10 | 0 | 0.0 | 9.7 | 0.13 | 0.91 | 0.30 | 96 | 1007.0 |
| 20260505235541 | 10 | 0 | 0.0 | 6.4 | 0.15 | 0.91 | 0.30 | 96 | 1007.0 |
| 20260505235045 | 10 | 0 | 0.0 | 6.4 | 0.13 | 0.89 | 0.28 | 96 | 1007.1 |
| 20260505234606 | 10 | 0 | 0.0 | 1.6 | 0.15 | 0.89 | 0.28 | 96 | 1007.3 |
| 20260505234047 | 10 | 0 | 0.0 | 1.6 | 0.15 | 0.86 | 0.28 | 96 | 1007.4 |
| 20260505233547 | 10 | 0 | 0.0 | 4.8 | 0.13 | 0.84 | 0.25 | 96 | 1007.3 |
| 20260505233048 | 10 | 0 | 0.0 | 4.8 | 0.15 | 0.84 | 0.25 | 96 | 1007.3 |
| 20260505232547 | 10 | 0 | 0.0 | 0.0 | 0.15 | 0.84 | 0.23 | 96 | 1007.4 |
| 20260505232047 | 10 | 0 | 0.0 | 6.4 | 0.15 | 0.81 | 0.20 | 96 | 1007.4 |
| 20260505231605 | 10 | 0 | 0.0 | 6.4 | 0.18 | 0.81 | 0.20 | 96 | 1007.5 |
| 20260505231045 | 10 | 0 | 0.0 | 6.4 | 0.15 | 0.79 | 0.18 | 96 | 1007.4 |
| 20260505230545 | 10 | 0 | 0.0 | 3.2 | 0.18 | 0.79 | 0.18 | 96 | 1007.5 |
| 20260505230054 | 10 | 0 | 0.0 | 0.0 | 0.18 | 0.76 | 0.18 | 96 | 1007.5 |
| 20260505225547 | 10 | 0 | 0.0 | 0.0 | 0.15 | 0.74 | 0.15 | 96 | 1007.6 |
| 20260505225047 | 10 | 0 | 0.0 | 1.6 | 0.18 | 0.74 | 0.15 | 96 | 1007.6 |
| 20260505224551 | 10 | 0 | 0.0 | 1.6 | 0.15 | 0.74 | 0.13 | 96 | 1007.7 |
| 20260505224050 | 10 | 0 | 0.0 | 0.0 | 0.15 | 0.71 | 0.10 | 96 | 1007.6 |
| 20260505223546 | 10 | 0 | 0.0 | 0.0 | 0.15 | 0.69 | 0.08 | 96 | 1007.7 |
| 20260505223103 | 10 | 0 | 0.0 | 0.0 | 0.18 | 0.69 | 0.08 | 96 | 1007.7 |
| 20260505222548 | 10 | 0 | 0.0 | 6.4 | 0.15 | 0.66 | 0.08 | 96 | 1007.7 |
| 20260505222051 | 10 | 0 | 0.0 | 6.4 | 0.15 | 0.64 | 0.05 | 96 | 1007.7 |
| 20260505221558 | 10 | 0 | 0.0 | 0.0 | 0.13 | 0.64 | 0.03 | 96 | 1007.8 |
| 20260505221048 | 10 | 0 | 0.0 | 1.6 | 0.15 | 0.64 | 0.03 | 96 | 1007.8 |
| 20260505220546 | 10 | 0 | 0.0 | 1.6 | 0.13 | 0.61 | 0.00 | 96 | 1007.8 |
| 20260505220054 | 10 | 0 | 0.0 | 0.0 | 0.13 | 0.58 | 0.00 | 96 | 1007.8 |
| 20260505215547 | 10 | 0 | 0.0 | 0.0 | 0.13 | 0.61 | 0.58 | 96 | 1007.8 |
| 20260505215047 | 10 | 0 | 0.0 | 0.0 | 0.13 | 0.58 | 0.56 | 96 | 1007.9 |
| 20260505214612 | 10 | 0 | 0.0 | 0.0 | 0.13 | 0.58 | 0.56 | 96 | 1007.9 |
| 20260505214046 | 10 | 0 | 0.0 | 0.0 | 0.10 | 0.56 | 0.56 | 96 | 1008.1 |
| 20260505213545 | 10 | 0 | 0.0 | 1.6 | 0.10 | 0.56 | 0.53 | 96 | 1008.0 |
| 20260505213057 | 10 | 0 | 0.0 | 1.6 | 0.08 | 0.53 | 0.51 | 96 | 1008.0 |
| 20260505212545 | 10 | 0 | 0.0 | 1.6 | 0.08 | 0.51 | 0.48 | 96 | 1008.1 |
| 20260505212048 | 10 | 0 | 0.0 | 0.0 | 0.08 | 0.51 | 0.48 | 96 | 1008.2 |
| 20260505211551 | 10 | 0 | 0.0 | 0.0 | 0.08 | 0.48 | 0.46 | 96 | 1008.1 |
| 20260505211047 | 10 | 0 | 0.0 | 0.0 | 0.10 | 0.48 | 0.46 | 96 | 1008.2 |
| 20260505210546 | 10 | 0 | 0.0 | 0.0 | 0.08 | 0.46 | 0.46 | 96 | 1008.1 |
| 20260505210050 | 10 | 0 | 0.0 | 9.7 | 0.08 | 0.46 | 0.46 | 96 | 1008.3 |
| 20260505205547 | 10 | 0 | 0.0 | 9.7 | 0.10 | 0.46 | 0.46 | 96 | 1008.3 |
| 20260505205048 | 10 | 0 | 0.0 | 4.8 | 0.08 | 0.46 | 0.43 | 96 | 1008.3 |
| 20260505204549 | 10 | 0 | 0.0 | 4.8 | 0.08 | 0.46 | 0.43 | 96 | 1008.3 |
| 20260505204046 | 10 | 0 | 0.0 | 4.8 | 0.10 | 0.46 | 0.43 | 96 | 1008.3 |
| 20260505203546 | 10 | 0 | 0.0 | 3.2 | 0.08 | 0.43 | 0.41 | 96 | 1008.3 |
| 20260505203054 | 10 | 0 | 0.0 | 3.2 | 0.08 | 0.43 | 0.41 | 96 | 1008.3 |
| 20260505202542 | 10 | 0 | 0.0 | 0.0 | 0.08 | 0.41 | 0.38 | 96 | 1008.5 |
| 20260505202045 | 10 | 0 | 0.0 | 3.2 | 0.08 | 0.41 | 0.38 | 96 | 1008.3 |
| 20260505201557 | 10 | 0 | 0.0 | 3.2 | 0.08 | 0.38 | 0.36 | 96 | 1008.3 |
| 20260505201045 | 10 | 0 | 0.0 | 3.2 | 0.08 | 0.36 | 0.36 | 96 | 1008.4 |
| 20260505200545 | 10 | 0 | 0.0 | 1.6 | 0.08 | 0.36 | 0.36 | 96 | 1008.2 |
| 20260505195541 | 10 | 0 | 0.0 | 9.7 | 0.08 | 0.36 | 0.33 | 95 | 1008.3 |
| 20260505195044 | 10 | 0 | 0.0 | 9.7 | 0.08 | 0.36 | 0.33 | 95 | 1008.4 |
| 20260505194555 | 10 | 0 | 0.0 | 1.6 | 0.08 | 0.36 | 0.33 | 95 | 1008.3 |
| 20260505194045 | 10 | 0 | 0.0 | 1.6 | 0.08 | 0.33 | 0.30 | 95 | 1008.3 |
| 20260505193545 | 10 | 0 | 0.0 | 1.6 | 0.08 | 0.33 | 0.30 | 95 | 1008.4 |
| 20260505193050 | 10 | 0 | 0.0 | 4.8 | 0.08 | 0.33 | 0.30 | 95 | 1008.4 |
| 20260505192546 | 11 | 0 | 0.0 | 4.8 | 0.05 | 0.30 | 0.28 | 95 | 1008.4 |
| 20260505192044 | 11 | 0 | 0.0 | 4.8 | 0.05 | 0.30 | 0.28 | 95 | 1008.3 |
| 20260505191554 | 11 | 0 | 0.0 | 3.2 | 0.05 | 0.30 | 0.28 | 95 | 1008.4 |
| 20260505191044 | 11 | 0 | 0.0 | 1.6 | 0.03 | 0.28 | 0.28 | 95 | 1008.4 |
| 20260505190545 | 11 | 0 | 0.0 | 4.8 | 0.03 | 0.28 | 0.28 | 95 | 1008.4 |
| 20260505190051 | 11 | 0 | 0.0 | 4.8 | 0.00 | 0.28 | 0.25 | 95 | 1008.4 |
| 20260505185547 | 11 | 0 | 0.0 | 3.2 | 0.00 | 0.28 | 0.25 | 95 | 1008.3 |
| 20260505185042 | 11 | 0 | 0.0 | 4.8 | 0.00 | 0.28 | 0.23 | 95 | 1008.3 |
| 20260505184554 | 11 | 0 | 0.0 | 8.0 | 0.00 | 0.28 | 0.23 | 95 | 1008.3 |
| 20260505184042 | 11 | 0 | 0.0 | 8.0 | 0.00 | 0.28 | 0.23 | 95 | 1008.4 |
| 20260505183544 | 11 | 0 | 0.0 | 8.0 | 0.00 | 0.28 | 0.23 | 95 | 1008.5 |
| 20260505183103 | 11 | 0 | 0.0 | 8.0 | 0.00 | 0.28 | 0.23 | 95 | 1008.3 |
| 20260505182544 | 11 | 0 | 0.0 | 6.4 | 0.00 | 0.28 | 0.23 | 95 | 1008.3 |
| 20260505182044 | 11 | 0 | 0.0 | 0.0 | 0.00 | 0.28 | 0.23 | 95 | 1008.3 |
| 20260505181552 | 11 | 0 | 0.0 | 6.4 | 0.00 | 0.28 | 0.23 | 95 | 1008.4 |
| 20260505181046 | 11 | 0 | 0.0 | 6.4 | 0.00 | 0.28 | 0.23 | 95 | 1008.4 |
| 20260505180544 | 11 | 0 | 0.0 | 6.4 | 0.00 | 0.28 | 0.23 | 95 | 1008.5 |
| 20260505180053 | 11 | 0 | 0.0 | 4.8 | 0.00 | 0.28 | 0.23 | 95 | 1008.5 |
| 20260505175541 | 11 | 0 | 0.0 | 4.8 | 0.00 | 0.36 | 0.23 | 95 | 1008.5 |
| 20260505175045 | 11 | 0 | 0.0 | 4.8 | 0.00 | 0.36 | 0.23 | 95 | 1008.5 |
| 20260505174557 | 11 | 0 | 0.0 | 6.4 | 0.00 | 0.36 | 0.23 | 95 | 1008.4 |
| 20260505174042 | 11 | 0 | 0.0 | 6.4 | 0.00 | 0.36 | 0.23 | 95 | 1008.6 |
| 20260505173541 | 11 | 0 | 0.0 | 4.8 | 0.00 | 0.36 | 0.23 | 95 | 1008.5 |
| 20260505173054 | 11 | 0 | 0.0 | 4.8 | 0.00 | 0.36 | 0.23 | 95 | 1008.6 |
| 20260505172545 | 11 | 0 | 0.0 | 0.0 | 0.00 | 0.36 | 0.23 | 95 | 1008.6 |
| 20260505172048 | 11 | 0 | 0.0 | 0.0 | 0.00 | 0.36 | 0.23 | 95 | 1008.6 |
| 20260505171551 | 11 | 0 | 0.0 | 6.4 | 0.00 | 0.36 | 0.23 | 95 | 1008.5 |
| 20260505171046 | 11 | 0 | 0.0 | 6.4 | 0.00 | 0.36 | 0.23 | 95 | 1008.6 |
| 20260505170547 | 11 | 337 | 0.0 | 6.4 | 0.00 | 0.36 | 0.23 | 96 | 1008.7 |
| 20260505170050 | 11 | 0 | 0.0 | 0.0 | 0.00 | 0.36 | 0.23 | 95 | 1008.6 |
| 20260505165547 | 11 | 0 | 0.0 | 4.8 | 0.00 | 0.38 | 0.23 | 95 | 1008.7 |
| 20260505165048 | 11 | 0 | 0.0 | 4.8 | 0.00 | 0.38 | 0.23 | 95 | 1008.7 |
| 20260505164551 | 11 | 0 | 0.0 | 4.8 | 0.00 | 0.38 | 0.23 | 95 | 1008.8 |
| 20260505164047 | 11 | 0 | 0.0 | 6.4 | 0.00 | 0.38 | 0.23 | 95 | 1008.8 |
| 20260505163547 | 11 | 0 | 0.0 | 6.4 | 0.00 | 0.38 | 0.23 | 95 | 1008.9 |
| 20260505163055 | 11 | 0 | 0.0 | 0.0 | 0.00 | 0.38 | 0.23 | 95 | 1008.9 |
| 20260505162545 | 11 | 0 | 0.0 | 9.7 | 0.00 | 0.38 | 0.23 | 95 | 1008.9 |
| 20260505162046 | 11 | 0 | 0.0 | 9.7 | 0.00 | 0.38 | 0.23 | 95 | 1008.8 |
| 20260505161600 | 11 | 0 | 0.0 | 9.7 | 0.00 | 0.38 | 0.23 | 96 | 1008.8 |
| 20260505161046 | 11 | 0 | 0.0 | 4.8 | 0.00 | 0.38 | 0.23 | 95 | 1008.9 |
| 20260505160547 | 11 | 0 | 0.0 | 8.0 | 0.00 | 0.38 | 0.23 | 95 | 1008.8 |
| 20260505153101 | 11 | 0 | 0.0 | 8.0 | 0.00 | 0.41 | 0.23 | 95 | 1009.1 |
| 20260505152546 | 11 | 0 | 0.0 | 8.0 | 0.00 | 0.41 | 0.23 | 95 | 1009.1 |
| 20260505152045 | 11 | 0 | 0.0 | 6.4 | 0.00 | 0.41 | 0.23 | 95 | 1009.2 |
| 20260505151604 | 11 | 0 | 0.0 | 6.4 | 0.00 | 0.41 | 0.23 | 96 | 1009.3 |
| 20260505151044 | 11 | 0 | 0.0 | 6.4 | 0.00 | 0.41 | 0.23 | 96 | 1009.2 |
| 20260505150544 | 11 | 0 | 0.0 | 6.4 | 0.00 | 0.41 | 0.23 | 96 | 1009.3 |
| 20260505140547 | 11 | 0 | 1.6 | 12.9 | 0.00 | 0.41 | 0.23 | 96 | 1009.5 |
| 20260505140111 | 11 | 0 | 0.0 | 0.0 | 0.00 | 0.41 | 0.23 | 96 | 1009.5 |
| 20260505124607 | 12 | 0 | 0.0 | 4.8 | 0.00 | 0.41 | 0.23 | 96 | 1009.9 |
| 20260505124047 | 12 | 0 | 0.0 | 4.8 | 0.00 | 0.41 | 0.23 | 95 | 1010.0 |
| 20260505123546 | 12 | 0 | 0.0 | 0.0 | 0.00 | 0.41 | 0.23 | 96 | 1009.9 |
| 20260505123054 | 12 | 0 | 0.0 | 8.0 | 0.00 | 0.41 | 0.23 | 96 | 1009.9 |
| 20260505122547 | 12 | 0 | 0.0 | 8.0 | 0.00 | 0.41 | 0.23 | 96 | 1009.9 |
| 20260505122044 | 12 | 332 | 0.0 | 8.0 | 0.00 | 0.41 | 0.23 | 95 | 1009.9 |
| 20260505121557 | 12 | 0 | 0.0 | 8.0 | 0.00 | 0.41 | 0.23 | 96 | 1009.9 |
| 20260505121044 | 12 | 0 | 0.0 | 4.8 | 0.00 | 0.41 | 0.23 | 96 | 1009.9 |
| 20260505120546 | 12 | 0 | 0.0 | 4.8 | 0.00 | 0.41 | 0.23 | 96 | 1009.9 |
| 20260505120057 | 12 | 0 | 0.0 | 4.8 | 0.00 | 0.41 | 0.23 | 96 | 1009.9 |
| 20260505115545 | 12 | 0 | 0.0 | 1.6 | 0.00 | 0.41 | 0.23 | 96 | 1009.9 |
| 20260505115048 | 12 | 0 | 0.0 | 1.6 | 0.00 | 0.41 | 0.23 | 96 | 1010.0 |
| 20260505114559 | 12 | 0 | 0.0 | 0.0 | 0.00 | 0.41 | 0.23 | 96 | 1010.0 |
| 20260505114047 | 12 | 0 | 0.0 | 1.6 | 0.03 | 0.41 | 0.23 | 95 | 1010.0 |
| 20260505113547 | 12 | 0 | 0.0 | 3.2 | 0.03 | 0.41 | 0.23 | 96 | 1010.0 |
| 20260505113100 | 12 | 0 | 0.0 | 3.2 | 0.05 | 0.41 | 0.23 | 96 | 1010.0 |
| 20260505112546 | 12 | 0 | 0.0 | 9.7 | 0.08 | 0.41 | 0.23 | 96 | 1010.1 |
| 20260505112047 | 12 | 0 | 0.0 | 9.7 | 0.08 | 0.41 | 0.23 | 95 | 1010.1 |
| 20260505111553 | 12 | 0 | 0.0 | 9.7 | 0.08 | 0.41 | 0.23 | 95 | 1010.0 |
| 20260505111048 | 12 | 0 | 0.0 | 8.0 | 0.08 | 0.41 | 0.23 | 95 | 1010.0 |
| 20260505110545 | 12 | 0 | 0.0 | 8.0 | 0.08 | 0.41 | 0.23 | 95 | 1010.1 |
| 20260505102045 | 12 | 0 | 0.0 | 8.0 | 0.08 | 0.30 | 0.13 | 95 | 1010.5 |
| 20260505101554 | 12 | 337 | 0.0 | 6.4 | 0.08 | 0.30 | 0.13 | 95 | 1010.4 |
| 20260505101044 | 12 | 0 | 0.0 | 6.4 | 0.10 | 0.30 | 0.13 | 95 | 1010.4 |
| 20260505100544 | 12 | 0 | 0.0 | 6.4 | 0.10 | 0.30 | 0.13 | 95 | 1010.4 |
| 20260505100049 | 12 | 0 | 0.0 | 6.4 | 0.10 | 0.30 | 0.13 | 95 | 1010.5 |
| 20260505095544 | 12 | 0 | 0.0 | 4.8 | 0.10 | 0.30 | 0.13 | 95 | 1010.5 |
| 20260505095047 | 12 | 0 | 0.0 | 3.2 | 0.10 | 0.30 | 0.13 | 95 | 1010.4 |
| 20260505094551 | 12 | 0 | 0.0 | 8.0 | 0.10 | 0.30 | 0.13 | 95 | 1010.4 |
| 20260505094044 | 12 | 0 | 0.0 | 8.0 | 0.08 | 0.28 | 0.08 | 95 | 1010.4 |
| 20260505093544 | 13 | 0 | 0.0 | 6.4 | 0.05 | 0.25 | 0.08 | 94 | 1010.4 |
| 20260505093058 | 13 | 0 | 0.0 | 6.4 | 0.05 | 0.25 | 0.08 | 95 | 1010.4 |
| 20260505092547 | 13 | 0 | 0.0 | 6.4 | 0.00 | 0.20 | 0.03 | 95 | 1010.4 |
| 20260505092046 | 13 | 0 | 0.0 | 6.4 | 0.00 | 0.20 | 0.03 | 95 | 1010.5 |
| 20260505091601 | 13 | 0 | 0.0 | 1.6 | 0.00 | 0.18 | 0.00 | 95 | 1010.5 |
| 20260505091046 | 13 | 0 | 0.0 | 6.4 | 0.00 | 0.18 | 0.00 | 94 | 1010.4 |
| 20260505090545 | 13 | 0 | 0.0 | 6.4 | 0.00 | 0.18 | 0.00 | 95 | 1010.5 |
| 20260505090052 | 13 | 0 | 0.0 | 1.6 | 0.00 | 0.18 | 0.00 | 95 | 1010.5 |
| 20260505085546 | 13 | 0 | 0.0 | 0.0 | 0.00 | 0.18 | 0.00 | 95 | 1010.5 |
| 20260505085047 | 13 | 0 | 0.0 | 0.0 | 0.00 | 0.18 | 0.00 | 95 | 1010.4 |
| 20260505084552 | 13 | 0 | 0.0 | 0.0 | 0.00 | 0.18 | 0.00 | 95 | 1010.5 |
| 20260505084049 | 13 | 0 | 0.0 | 0.0 | 0.00 | 0.18 | 0.00 | 95 | 1010.6 |
| 20260505083544 | 13 | 0 | 0.0 | 0.0 | 0.00 | 0.18 | 0.00 | 95 | 1010.5 |
| 20260505083056 | 13 | 0 | 0.0 | 0.0 | 0.00 | 0.18 | 0.00 | 95 | 1010.5 |
| 20260505082544 | 13 | 0 | 0.0 | 0.0 | 0.00 | 0.18 | 0.00 | 95 | 1010.5 |
| 20260505082044 | 13 | 0 | 0.0 | 0.0 | 0.00 | 0.18 | 0.00 | 95 | 1010.4 |
| 20260505081604 | 13 | 0 | 0.0 | 0.0 | 0.00 | 0.18 | 0.00 | 95 | 1010.4 |